sensor_id;sensor_type;location;lat;lon;timestamp;P1;durP1;ratioP1;P2;durP2;ratioP2
57313;SDS011;53202;50.976;18.216;2023-01-10T00:05:11;122.30;;;51.60;;
57313;SDS011;53202;50.976;18.216;2023-01-10T00:15:09;84.40;;;46.80;;
57313;SDS011;53202;50.976;18.216;2023-01-10T00:24:52;103.70;;;48.60;;
57313;SDS011;53202;50.976;18.216;2023-01-10T00:34:39;83.10;;;49.30;;
57313;SDS011;53202;50.976;18.216;2023-01-10T00:44:40;54.10;;;38.80;;
57313;SDS011;53202;50.976;18.216;2023-01-10T00:54:24;70.80;;;45.10;;
57313;SDS011;53202;50.976;18.216;2023-01-10T01:04:07;112.10;;;48.50;;
57313;SDS011;53202;50.976;18.216;2023-01-10T01:13:51;72.80;;;42.30;;
57313;SDS011;53202;50.976;18.216;2023-01-10T01:23:35;111.30;;;50.60;;
57313;SDS011;53202;50.976;18.216;2023-01-10T01:33:19;90.60;;;47.40;;
57313;SDS011;53202;50.976;18.216;2023-01-10T01:43:04;99.10;;;45.50;;
57313;SDS011;53202;50.976;18.216;2023-01-10T01:53:10;74.00;;;40.30;;
57313;SDS011;53202;50.976;18.216;2023-01-10T02:03:02;51.40;;;32.20;;
57313;SDS011;53202;50.976;18.216;2023-01-10T02:12:52;109.70;;;33.30;;
57313;SDS011;53202;50.976;18.216;2023-01-10T02:22:52;53.80;;;35.40;;
57313;SDS011;53202;50.976;18.216;2023-01-10T02:33:25;67.20;;;40.80;;
57313;SDS011;53202;50.976;18.216;2023-01-10T02:43:44;44.10;;;34.20;;
57313;SDS011;53202;50.976;18.216;2023-01-10T02:53:36;43.70;;;38.10;;
57313;SDS011;53202;50.976;18.216;2023-01-10T03:14:45;46.50;;;34.70;;
57313;SDS011;53202;50.976;18.216;2023-01-10T03:24:33;59.00;;;37.60;;
57313;SDS011;53202;50.976;18.216;2023-01-10T03:34:48;74.50;;;39.90;;
57313;SDS011;53202;50.976;18.216;2023-01-10T03:45:14;62.50;;;38.60;;
57313;SDS011;53202;50.976;18.216;2023-01-10T03:55:03;46.80;;;30.80;;
57313;SDS011;53202;50.976;18.216;2023-01-10T04:04:50;66.20;;;41.30;;
57313;SDS011;53202;50.976;18.216;2023-01-10T04:14:33;54.70;;;37.30;;
57313;SDS011;53202;50.976;18.216;2023-01-10T04:24:16;58.00;;;43.70;;
57313;SDS011;53202;50.976;18.216;2023-01-10T04:34:01;51.70;;;36.20;;
57313;SDS011;53202;50.976;18.216;2023-01-10T04:43:44;60.20;;;20.70;;
57313;SDS011;53202;50.976;18.216;2023-01-10T04:53:28;31.70;;;27.40;;
57313;SDS011;53202;50.976;18.216;2023-01-10T05:03:11;53.40;;;39.20;;
57313;SDS011;53202;50.976;18.216;2023-01-10T05:12:54;65.60;;;41.10;;
57313;SDS011;53202;50.976;18.216;2023-01-10T05:22:41;61.20;;;41.50;;
57313;SDS011;53202;50.976;18.216;2023-01-10T05:32:28;80.00;;;45.40;;
57313;SDS011;53202;50.976;18.216;2023-01-10T05:42:11;131.30;;;46.20;;
57313;SDS011;53202;50.976;18.216;2023-01-10T05:51:55;115.70;;;50.40;;
57313;SDS011;53202;50.976;18.216;2023-01-10T06:01:38;109.80;;;49.40;;
57313;SDS011;53202;50.976;18.216;2023-01-10T06:11:23;83.90;;;45.20;;
57313;SDS011;53202;50.976;18.216;2023-01-10T06:21:12;73.10;;;40.50;;
57313;SDS011;53202;50.976;18.216;2023-01-10T06:30:56;31.40;;;25.00;;
57313;SDS011;53202;50.976;18.216;2023-01-10T06:40:39;58.60;;;29.70;;
57313;SDS011;53202;50.976;18.216;2023-01-10T06:50:23;38.00;;;26.90;;
57313;SDS011;53202;50.976;18.216;2023-01-10T07:00:14;38.50;;;28.10;;
57313;SDS011;53202;50.976;18.216;2023-01-10T07:09:57;49.80;;;31.40;;
57313;SDS011;53202;50.976;18.216;2023-01-10T07:19:42;45.10;;;23.90;;
57313;SDS011;53202;50.976;18.216;2023-01-10T07:29:25;37.50;;;25.50;;
57313;SDS011;53202;50.976;18.216;2023-01-10T07:39:09;58.80;;;33.20;;
57313;SDS011;53202;50.976;18.216;2023-01-10T07:48:52;33.40;;;20.30;;
57313;SDS011;53202;50.976;18.216;2023-01-10T07:58:36;40.90;;;25.00;;
57313;SDS011;53202;50.976;18.216;2023-01-10T08:08:23;28.90;;;21.70;;
57313;SDS011;53202;50.976;18.216;2023-01-10T08:18:10;28.20;;;19.50;;
57313;SDS011;53202;50.976;18.216;2023-01-10T08:27:54;27.80;;;18.30;;
57313;SDS011;53202;50.976;18.216;2023-01-10T08:37:37;25.10;;;14.90;;
57313;SDS011;53202;50.976;18.216;2023-01-10T08:47:21;22.70;;;16.40;;
57313;SDS011;53202;50.976;18.216;2023-01-10T08:57:06;35.00;;;18.70;;
57313;SDS011;53202;50.976;18.216;2023-01-10T09:06:51;30.20;;;16.60;;
57313;SDS011;53202;50.976;18.216;2023-01-10T09:16:34;25.10;;;13.90;;
57313;SDS011;53202;50.976;18.216;2023-01-10T09:26:19;19.90;;;12.80;;
57313;SDS011;53202;50.976;18.216;2023-01-10T09:36:03;34.30;;;18.00;;
57313;SDS011;53202;50.976;18.216;2023-01-10T09:46:14;31.00;;;16.10;;
57313;SDS011;53202;50.976;18.216;2023-01-10T09:56:25;33.30;;;21.00;;
57313;SDS011;53202;50.976;18.216;2023-01-10T10:06:18;34.20;;;21.50;;
57313;SDS011;53202;50.976;18.216;2023-01-10T10:16:25;43.50;;;24.20;;
57313;SDS011;53202;50.976;18.216;2023-01-10T10:44:54;17.50;;;15.60;;
57313;SDS011;53202;50.976;18.216;2023-01-10T10:54:50;24.80;;;19.90;;
57313;SDS011;53202;50.976;18.216;2023-01-10T11:04:46;23.20;;;18.80;;
57313;SDS011;53202;50.976;18.216;2023-01-10T11:09:39;34.50;;;24.60;;
57313;SDS011;53202;50.976;18.216;2023-01-10T11:20:02;36.10;;;22.80;;
57313;SDS011;53202;50.976;18.216;2023-01-10T11:29:56;44.10;;;24.00;;
57313;SDS011;53202;50.976;18.216;2023-01-10T11:40:06;29.00;;;22.30;;
57313;SDS011;53202;50.976;18.216;2023-01-10T11:50:18;31.40;;;20.60;;
57313;SDS011;53202;50.976;18.216;2023-01-10T12:00:08;35.30;;;23.20;;
57313;SDS011;53202;50.976;18.216;2023-01-10T12:09:57;30.50;;;22.90;;
57313;SDS011;53202;50.976;18.216;2023-01-10T12:19:50;22.90;;;19.70;;
57313;SDS011;53202;50.976;18.216;2023-01-10T12:29:42;26.20;;;14.70;;
57313;SDS011;53202;50.976;18.216;2023-01-10T12:39:44;28.30;;;21.60;;
57313;SDS011;53202;50.976;18.216;2023-01-10T12:50:20;23.50;;;19.50;;
57313;SDS011;53202;50.976;18.216;2023-01-10T13:00:31;18.00;;;14.60;;
57313;SDS011;53202;50.976;18.216;2023-01-10T13:10:20;16.60;;;14.90;;
57313;SDS011;53202;50.976;18.216;2023-01-10T13:20:24;20.60;;;13.00;;
57313;SDS011;53202;50.976;18.216;2023-01-10T13:30:24;14.80;;;13.30;;
57313;SDS011;53202;50.976;18.216;2023-01-10T13:32:56;22.60;;;15.60;;
57313;SDS011;53202;50.976;18.216;2023-01-10T13:42:46;18.40;;;11.80;;
57313;SDS011;53202;50.976;18.216;2023-01-10T14:04:07;20.50;;;16.50;;
57313;SDS011;53202;50.976;18.216;2023-01-10T14:14:24;20.40;;;18.20;;
57313;SDS011;53202;50.976;18.216;2023-01-10T14:24:34;21.90;;;15.50;;
57313;SDS011;53202;50.976;18.216;2023-01-10T14:34:24;24.00;;;14.60;;
57313;SDS011;53202;50.976;18.216;2023-01-10T14:44:21;33.60;;;20.40;;
57313;SDS011;53202;50.976;18.216;2023-01-10T14:54:15;65.20;;;18.50;;
57313;SDS011;53202;50.976;18.216;2023-01-10T15:04:19;24.50;;;18.00;;
57313;SDS011;53202;50.976;18.216;2023-01-10T15:14:10;40.10;;;22.50;;
57313;SDS011;53202;50.976;18.216;2023-01-10T15:34:14;33.60;;;25.90;;
57313;SDS011;53202;50.976;18.216;2023-01-10T15:54:27;34.30;;;23.40;;
57313;SDS011;53202;50.976;18.216;2023-01-10T16:04:32;38.50;;;21.80;;
57313;SDS011;53202;50.976;18.216;2023-01-10T16:14:46;21.00;;;17.80;;
57313;SDS011;53202;50.976;18.216;2023-01-10T16:24:32;20.10;;;16.30;;
57313;SDS011;53202;50.976;18.216;2023-01-10T16:34:19;19.60;;;16.40;;
57313;SDS011;53202;50.976;18.216;2023-01-10T16:44:18;35.40;;;19.00;;
57313;SDS011;53202;50.976;18.216;2023-01-10T16:54:03;51.10;;;25.90;;
57313;SDS011;53202;50.976;18.216;2023-01-10T17:03:48;31.90;;;25.30;;
57313;SDS011;53202;50.976;18.216;2023-01-10T17:13:42;61.90;;;27.30;;
57313;SDS011;53202;50.976;18.216;2023-01-10T17:23:27;41.20;;;29.30;;
57313;SDS011;53202;50.976;18.216;2023-01-10T17:26:03;53.30;;;31.30;;
57313;SDS011;53202;50.976;18.216;2023-01-10T17:35:51;72.70;;;33.40;;
57313;SDS011;53202;50.976;18.216;2023-01-10T17:45:38;57.70;;;31.70;;
57313;SDS011;53202;50.976;18.216;2023-01-10T17:55:29;61.80;;;37.00;;
57313;SDS011;53202;50.976;18.216;2023-01-10T18:05:15;99.80;;;50.60;;
57313;SDS011;53202;50.976;18.216;2023-01-10T18:07:42;105.60;;;55.40;;
57313;SDS011;53202;50.976;18.216;2023-01-10T18:17:26;82.60;;;41.90;;
57313;SDS011;53202;50.976;18.216;2023-01-10T18:27:25;80.40;;;40.50;;
57313;SDS011;53202;50.976;18.216;2023-01-10T18:37:12;62.10;;;32.30;;
57313;SDS011;53202;50.976;18.216;2023-01-10T18:46:56;86.30;;;41.90;;
57313;SDS011;53202;50.976;18.216;2023-01-10T18:56:41;55.30;;;34.70;;
57313;SDS011;53202;50.976;18.216;2023-01-10T19:06:25;40.10;;;24.90;;
57313;SDS011;53202;50.976;18.216;2023-01-10T19:16:16;39.70;;;21.90;;
57313;SDS011;53202;50.976;18.216;2023-01-10T19:26:12;53.90;;;27.10;;
57313;SDS011;53202;50.976;18.216;2023-01-10T19:35:58;56.70;;;26.00;;
57313;SDS011;53202;50.976;18.216;2023-01-10T19:45:43;43.50;;;30.80;;
57313;SDS011;53202;50.976;18.216;2023-01-10T19:55:26;113.90;;;43.60;;
57313;SDS011;53202;50.976;18.216;2023-01-10T20:05:11;44.70;;;27.60;;
57313;SDS011;53202;50.976;18.216;2023-01-10T20:14:54;46.40;;;20.50;;
57313;SDS011;53202;50.976;18.216;2023-01-10T20:24:40;59.50;;;30.20;;
57313;SDS011;53202;50.976;18.216;2023-01-10T20:34:29;59.80;;;25.60;;
57313;SDS011;53202;50.976;18.216;2023-01-10T20:44:16;41.30;;;23.70;;
57313;SDS011;53202;50.976;18.216;2023-01-10T20:54:01;39.20;;;23.30;;
57313;SDS011;53202;50.976;18.216;2023-01-10T21:03:47;21.10;;;18.20;;
57313;SDS011;53202;50.976;18.216;2023-01-10T21:13:33;37.30;;;23.80;;
57313;SDS011;53202;50.976;18.216;2023-01-10T21:23:22;67.50;;;30.60;;
57313;SDS011;53202;50.976;18.216;2023-01-10T21:33:08;61.20;;;29.90;;
57313;SDS011;53202;50.976;18.216;2023-01-10T21:42:53;38.00;;;25.40;;
57313;SDS011;53202;50.976;18.216;2023-01-10T21:52:39;57.30;;;18.30;;
57313;SDS011;53202;50.976;18.216;2023-01-10T22:02:23;53.70;;;25.60;;
57313;SDS011;53202;50.976;18.216;2023-01-10T22:12:11;78.60;;;29.60;;
57313;SDS011;53202;50.976;18.216;2023-01-10T22:21:54;49.40;;;21.70;;
57313;SDS011;53202;50.976;18.216;2023-01-10T22:31:40;170.00;;;51.20;;
57313;SDS011;53202;50.976;18.216;2023-01-10T22:41:24;54.80;;;26.20;;
57313;SDS011;53202;50.976;18.216;2023-01-10T22:51:09;107.90;;;45.70;;
57313;SDS011;53202;50.976;18.216;2023-01-10T23:00:53;27.70;;;21.30;;
57313;SDS011;53202;50.976;18.216;2023-01-10T23:10:38;45.10;;;26.10;;
57313;SDS011;53202;50.976;18.216;2023-01-10T23:20:23;85.10;;;31.80;;
57313;SDS011;53202;50.976;18.216;2023-01-10T23:30:07;62.80;;;23.80;;
57313;SDS011;53202;50.976;18.216;2023-01-10T23:39:51;49.40;;;26.20;;
57313;SDS011;53202;50.976;18.216;2023-01-10T23:49:35;45.40;;;24.80;;
57313;SDS011;53202;50.976;18.216;2023-01-10T23:59:18;24.40;;;19.20;;
